Yangyang Airport, South Korea

5:07 PM KST on September 17, 2014 (GMT +0900)
R-404 | Change Station
CLOSE
Current Station
Airport
Location: Yangyang Airport,
Elevation: 240 ft
Nearby Weather Stations

Elev 240 ft 38.06 °N, 128.67 °E | Updated 7 minutes ago

Rain
Rain
63 °F
Feels Like 63 °F
N
12
Wind Variable Wind from NW

Today
High -- | Low -- °F
--% Chance of Precip.
Yesterday
High -- | Low -- °F
Precip. -- in
6:11 AM 6:33 PM
Last Quarter, 38% visible
Pressure 30.01 in
Visibility 3.7 miles
Clouds Scattered Clouds 1500 ft
Mostly Cloudy 2500 ft
Overcast 8000 ft
Dew Point 61 °F
Humidity 94%
Rainfall 0.00 in
Snow Depth Not available.
UV 0 out of 12
Pollen Not available.
Air Quality Not available.
Flu Activity Not available.
METAR RKNY 170800Z 32010KT 6000 RA SCT015 BKN025 OVC080 17/16 Q1016 BECMG 3000

More Conditions Fewer Conditions

Pressure 30.01 in
Visibility 3.7 miles
Clouds Scattered Clouds 1500 ft
Mostly Cloudy 2500 ft
Overcast 8000 ft
Dew Point 61 °F
Humidity 94%
Rainfall 0.00 in
Snow Depth Not available.
UV 0 out of 12
Pollen Not available.
Air Quality Not available.
Flu Activity Not available.
METAR RKNY 170800Z 32010KT 6000 RA SCT015 BKN025 OVC080 17/16 Q1016 BECMG 3000

More Conditions Fewer Conditions

10-Day Weather Forecast

Almanac

Astronomy

Sep. 17, 2014 Rise Set
Actual Time 6:11 AM KST 6:33 PM KST
Civil Twilight 5:44 AM KST 7:00 PM KST
Nautical Twilight 5:13 AM KST 7:31 PM KST
Astronomical Twilight 4:41 AM KST 8:02 PM KST
Moon No Moon Rise 2:12 PM KST
Length of Visible Light 13h 15m
Length of Day
12h 22m
Tomorrow will be 2m 26s shorter.
Last Quarter, 38% of the Moon is Illuminated
Today
Last Quarter
Sep 24
New
Oct 1
First Quarter
Oct 8
Full
Oct 15
Last Quarter

Yesterday's Extremes

Country Highs Country Lows

Community

WunderPhotos

Upload Photos

1,753,976 photos uploaded!

Nearby

Snow Depth

Not available.

Earthquake Activity

City Distance Mag. Time & Date
No recent earthquake activity has been reported nearby.
Minimum magnitude displayed is 2.5.

Coastal Water Temperatures

Place Temperature
No Stations Reporting

Nearby Weather Stations